Turkey Creek, Louisiana
Current Conditions -  °F | °C
As of 9:35 PM on Sunday 23 Nov 2014 (Local Time) from KACP Reporting Station
Clear Clear  
Wind Chill: 64°   Ceiling: Unl
Heat Index: 64°   Visibility: 10mi
Dew Point: 61°   Wind: 3mph
Humidity: 92%   Direction: 190°S
Pressure: 29.67"   Gusts: NA
Location:  30.88°N, 92.41°W
Report Text: KACP 240335Z AUTO 19003KT 10SM CLR 18/16 A2967 RMK AO2 T01750162
Loading
Personal Weather Stations






























Interactive Weather Map New forecast layout! Learn more

10-Day Weather Forecast

Advertisements
Track Severe Weather on mobile